Time;durP1;ratioP1;P1;durP2;ratioP2;P2;SDS_P1;SDS_P2;PMS_P1;PMS_P2;Temp;Humidity;BMP_temperature;BMP_pressure;BME280_temperature;BME280_humidity;BME280_pressure;Samples;Min_cycle;Max_cycle;Signal;HPM_P1;HPM_P2
2023/09/19 00:05:12;;;;;;;;;;;;;;;;;;;;;
2023/09/19 00:07:41;;;;;;;8.88;2.83;;;;;;;14.44;94.57;100513.28;4968279;28;20046;-81
2023/09/19 00:10:44;;;;;;;9.00;2.60;;;;;;;14.43;94.98;100506.22;4979002;28;20034;-81
2023/09/19 00:19:52;;;;;;;7.15;2.28;;;;;;;14.46;94.29;100516.59;4861221;29;20068;-77
2023/09/19 00:22:36;;;;;;;12.50;3.15;;;;;;;14.44;94.48;100521.41;4908392;28;20046;-77
2023/09/19 00:25:04;;;;;;;11.55;2.80;;;;;;;14.49;94.61;100510.69;4986726;28;20038;-77
2023/09/19 00:27:33;;;;;;;13.25;2.42;;;;;;;14.55;93.68;100520.59;5029863;28;20142;-76
2023/09/19 00:29:59;;;;;;;8.32;2.65;;;;;;;14.54;93.96;100513.53;5046614;28;20045;-77
2023/09/19 00:32:24;;;;;;;10.75;2.63;;;;;;;14.53;94.57;100523.56;5038047;28;20045;-77
2023/09/19 00:34:49;;;;;;;9.82;2.40;;;;;;;14.56;94.39;100514.13;5040321;28;20072;-77
2023/09/19 00:37:17;;;;;;;9.82;2.83;;;;;;;14.59;94.58;100519.09;5038826;28;20022;-78
2023/09/19 00:39:43;;;;;;;10.60;2.30;;;;;;;14.60;94.54;100518.03;5036531;28;20034;-76
2023/09/19 00:42:08;;;;;;;10.38;2.45;;;;;;;14.60;93.73;100528.88;5032039;28;20410;-76
2023/09/19 00:44:34;;;;;;;11.70;2.42;;;;;;;14.54;93.57;100524.38;5037135;28;20026;-77
2023/09/19 00:47:00;;;;;;;11.77;2.40;;;;;;;14.59;93.36;100526.38;5035141;28;20411;-77
2023/09/19 00:49:25;;;;;;;9.93;2.50;;;;;;;14.46;93.48;100546.38;5035352;28;20436;-77
2023/09/19 00:51:51;;;;;;;7.43;2.40;;;;;;;14.48;93.49;100536.13;5034821;28;20500;-77
2023/09/19 00:54:18;;;;;;;11.95;2.70;;;;;;;14.49;93.51;100543.19;5011238;28;20381;-75
2023/09/19 00:56:44;;;;;;;9.23;2.70;;;;;;;14.59;92.21;100543.47;5031037;28;20045;-77
2023/09/19 00:59:11;;;;;;;9.52;2.45;;;;;;;14.55;92.31;100545.81;5041379;28;20026;-76
2023/09/19 01:01:39;;;;;;;7.05;2.03;;;;;;;14.48;92.66;100547.78;5041471;28;20029;-77
2023/09/19 01:04:05;;;;;;;7.50;2.38;;;;;;;14.46;92.03;100549.91;5038902;28;20068;-77
2023/09/19 01:06:33;;;;;;;8.23;2.40;;;;;;;14.36;92.00;100549.63;5045198;28;20441;-77
2023/09/19 01:08:58;;;;;;;5.95;2.05;;;;;;;14.41;91.15;100549.75;5045261;28;20469;-77
2023/09/19 01:11:58;;;;;;;9.13;2.05;;;;;;;14.34;91.21;100557.97;5038941;28;20029;-76
2023/09/19 01:14:42;;;;;;;7.65;2.30;;;;;;;14.36;90.57;100558.56;5039402;28;20041;-77
2023/09/19 01:17:23;;;;;;;7.55;2.00;;;;;;;14.32;90.49;100554.66;5034244;28;20095;-77
2023/09/19 01:20:24;;;;;;;6.68;1.92;;;;;;;14.34;90.58;100557.97;5020998;28;20018;-77
2023/09/19 01:23:21;;;;;;;6.55;2.20;;;;;;;14.27;91.12;100572.66;5031345;28;20291;-77
2023/09/19 01:26:08;;;;;;;;;;;;;;;14.24;91.31;100569.34;5012388;28;20039;-77
2023/09/19 01:28:57;;;;;;;6.10;2.30;;;;;;;14.29;91.90;100557.84;5086225;22;19929;-77
2023/09/19 01:31:23;;;;;;;6.47;2.13;;;;;;;14.27;92.18;100573.50;5041223;22;20060;-77
2023/09/19 01:34:04;;;;;;;9.52;2.75;;;;;;;14.27;93.25;100576.22;5014721;28;20022;-76
2023/09/19 01:36:35;;;;;;;7.18;2.22;;;;;;;14.15;94.35;100572.59;5035338;28;20082;-76
2023/09/19 01:39:05;;;;;;;6.85;2.60;;;;;;;13.99;95.85;100576.78;5033722;28;20026;-77
2023/09/19 01:41:38;;;;;;;8.00;2.50;;;;;;;13.98;96.02;100578.63;5035122;28;20053;-77
2023/09/19 01:44:24;;;;;;;8.20;2.65;;;;;;;13.96;97.03;100578.03;5035991;28;20053;-77
2023/09/19 01:46:52;;;;;;;15.65;3.08;;;;;;;13.94;96.82;100586.38;5027547;28;20030;-77
2023/09/19 01:49:26;;;;;;;7.13;2.92;;;;;;;13.88;96.88;100575.63;5032198;28;20038;-77
2023/09/19 01:52:06;;;;;;;10.93;2.83;;;;;;;13.84;97.05;100585.25;5031464;28;20064;-77
2023/09/19 01:54:37;;;;;;;10.88;2.67;;;;;;;13.81;97.42;100591.94;5029831;28;20086;-76
2023/09/19 01:57:09;;;;;;;8.32;2.95;;;;;;;13.85;97.14;100584.19;5015777;28;20100;-77
2023/09/19 01:59:40;;;;;;;10.27;2.95;;;;;;;13.72;97.82;100588.72;5014340;28;20033;-76
2023/09/19 02:02:12;;;;;;;8.82;2.67;;;;;;;13.77;97.37;100583.44;4999441;28;20034;-77
2023/09/19 02:04:37;;;;;;;12.25;2.60;;;;;;;13.86;96.40;100588.56;5031905;28;20038;-76
2023/09/19 02:07:05;;;;;;;9.15;2.17;;;;;;;13.81;96.35;100578.44;5015000;28;20029;-77
2023/09/19 02:09:35;;;;;;;8.30;2.28;;;;;;;13.76;96.17;100583.69;5014801;28;20036;-77
2023/09/19 02:12:03;;;;;;;6.43;2.17;;;;;;;13.75;96.03;100577.44;5034859;28;20045;-77
2023/09/19 02:14:29;;;;;;;7.85;2.53;;;;;;;13.68;95.62;100579.38;5031922;28;20461;-77
2023/09/19 02:16:55;;;;;;;9.50;2.50;;;;;;;13.67;95.79;100585.84;5015918;28;20033;-79
2023/09/19 02:19:20;;;;;;;7.05;2.17;;;;;;;13.62;95.54;100585.69;5033317;28;20021;-79
2023/09/19 02:25:00;;;;;;;10.20;2.42;;;;;;;13.53;96.15;100593.25;5131641;22;20046;-78
2023/09/19 02:27:41;;;;;;;14.05;2.55;;;;;;;13.46;95.98;100593.31;5022513;28;20465;-78
2023/09/19 02:30:11;;;;;;;11.50;2.13;;;;;;;13.44;95.95;100592.72;5022911;28;20113;-79
2023/09/19 02:32:43;;;;;;;8.10;2.30;;;;;;;13.35;95.92;100600.25;5021637;28;20037;-79
2023/09/19 02:35:46;;;;;;;13.02;3.22;;;;;;;13.23;96.40;100596.63;4993750;28;20058;-80
2023/09/19 02:38:20;;;;;;;10.07;2.28;;;;;;;13.30;95.93;100604.69;5023991;28;20038;-79
2023/09/19 02:44:20;;;;;;;;;;;;;;;;;;;;;
2023/09/19 03:06:35;;;;;;;5.72;2.05;;;;;;;12.94;95.62;100617.00;4958010;28;20066;-80
2023/09/19 04:08:02;;;;;;;10.57;2.50;;;;;;;12.30;91.25;100625.88;5009466;22;20121;-79
2023/09/19 04:10:56;;;;;;;13.07;2.35;;;;;;;12.26;90.55;100630.06;5029338;28;20064;-79
2023/09/19 04:14:11;;;;;;;;;;;;;;;;;;;;;
2023/09/19 04:17:02;;;;;;;7.30;2.20;;;;;;;12.20;90.49;100631.72;5016309;28;20045;-83
2023/09/19 04:20:06;;;;;;;14.63;2.60;;;;;;;12.24;90.41;100632.16;5032108;28;20064;-79
2023/09/19 04:22:39;;;;;;;7.82;2.17;;;;;;;12.21;90.48;100624.47;5030345;28;20083;-78
2023/09/19 04:31:05;;;;;;;8.27;1.98;;;;;;;12.09;90.47;100635.91;5088478;23;20110;-78
2023/09/19 04:51:40;;;;;;;8.25;1.90;;;;;;;11.98;88.47;100683.28;5577526;23;20053;-78
2023/09/19 05:01:17;;;;;;;6.32;2.58;;;;;;;12.14;87.02;100691.97;4965853;28;20157;-79
2023/09/19 05:04:04;;;;;;;6.05;1.90;;;;;;;12.09;87.39;100702.56;4980869;23;20047;-79
2023/09/19 05:12:56;;;;;;;7.72;1.73;;;;;;;12.07;87.36;100718.13;5094710;22;20053;-77
2023/09/19 05:15:40;;;;;;;8.52;2.17;;;;;;;12.12;87.22;100721.03;5016418;28;20065;-78
2023/09/19 05:18:11;;;;;;;10.57;2.28;;;;;;;12.08;87.63;100709.00;5019312;28;20080;-78
2023/09/19 05:20:44;;;;;;;8.13;2.25;;;;;;;12.07;87.04;100718.13;5034371;28;20093;-80
2023/09/19 05:23:20;;;;;;;10.55;2.10;;;;;;;12.13;86.83;100720.81;5036369;28;20108;-80
2023/09/19 05:29:44;;;;;;;4.60;1.52;;;;;;;12.20;86.46;100706.47;5039219;28;19924;-77
2023/09/19 05:32:12;;;;;;;6.40;1.88;;;;;;;12.24;86.38;100708.53;5016601;28;20116;-78
2023/09/19 05:35:03;;;;;;;8.10;2.15;;;;;;;12.28;86.21;100701.69;5069169;23;20356;-77
2023/09/19 05:37:38;;;;;;;7.70;1.92;;;;;;;12.26;86.47;100705.63;5071457;23;20136;-78
2023/09/19 05:40:09;;;;;;;8.38;1.88;;;;;;;12.34;86.36;100704.56;5070111;28;20036;-78
2023/09/19 05:42:41;;;;;;;4.70;1.73;;;;;;;12.40;85.96;100696.44;5072403;22;20102;-77
2023/09/19 05:45:07;;;;;;;6.03;2.00;;;;;;;12.51;85.35;100697.66;5054565;28;20477;-77
2023/09/19 05:51:17;;;;;;;8.85;2.10;;;;;;;12.66;84.92;100704.66;5052148;23;20103;-77
2023/09/19 05:54:01;;;;;;;7.57;2.00;;;;;;;12.72;84.54;100714.59;4965246;28;20050;-76
2023/09/19 06:05:15;;;;;;;7.50;2.00;;;;;;;12.72;85.26;100728.09;6127056;23;20013;-78
2023/09/19 06:28:39;;;;;;;7.60;1.83;;;;;;;13.03;86.21;100737.31;5049594;28;20488;-78
2023/09/19 06:32:03;;;;;;;7.10;1.90;;;;;;;13.20;85.13;100737.63;5055107;28;20052;-78
2023/09/19 06:34:35;;;;;;;10.40;2.45;;;;;;;13.24;85.37;100741.56;4971136;28;20073;-78
2023/09/19 07:02:59;;;;;;;7.45;2.38;;;;;;;15.07;77.46;100755.88;5058039;28;20044;-78
2023/09/19 07:05:43;;;;;;;8.65;2.10;;;;;;;15.27;76.21;100761.00;5057776;23;20423;-78
2023/09/19 07:08:12;;;;;;;14.25;2.70;;;;;;;15.22;76.63;100758.16;5024172;28;20093;-77
2023/09/19 07:10:48;;;;;;;9.05;2.05;;;;;;;15.35;76.43;100759.84;5024498;28;20026;-77
2023/09/19 07:13:17;;;;;;;8.10;2.30;;;;;;;15.41;76.73;100760.81;5025111;28;20104;-77
2023/09/19 07:15:49;;;;;;;8.00;2.35;;;;;;;15.37;76.15;100748.75;5015779;28;20112;-77
2023/09/19 07:18:16;;;;;;;7.05;2.05;;;;;;;15.39;76.29;100757.50;5027052;28;20032;-77
2023/09/19 07:20:50;;;;;;;10.98;1.88;;;;;;;15.38;77.02;100753.13;5032262;28;20025;-78
2023/09/19 07:23:18;;;;;;;6.85;2.20;;;;;;;15.42;76.73;100757.03;5003236;28;20030;-77
2023/09/19 07:25:44;;;;;;;8.50;2.40;;;;;;;15.24;77.54;100763.38;5014687;28;20109;-78
2023/09/19 07:28:09;;;;;;;8.25;2.00;;;;;;;15.32;77.61;100763.03;5005646;28;20453;-77
2023/09/19 07:30:38;;;;;;;9.57;2.08;;;;;;;15.66;76.58;100762.53;5031244;28;20362;-78
2023/09/19 07:33:05;;;;;;;8.52;2.53;;;;;;;15.58;76.58;100744.72;5030092;28;20041;-78
2023/09/19 07:35:34;;;;;;;8.80;2.30;;;;;;;15.95;74.57;100757.28;5013248;28;20018;-77
2023/09/19 07:38:07;;;;;;;7.55;2.58;;;;;;;16.13;73.95;100761.78;5012204;28;20030;-77
2023/09/19 07:40:42;;;;;;;11.35;2.33;;;;;;;16.24;73.90;100752.78;5014460;28;20068;-77
2023/09/19 07:53:39;;;;;;;7.88;2.22;;;;;;;16.50;72.73;100761.53;5021348;28;20088;-77
2023/09/19 07:56:09;;;;;;;8.60;2.10;;;;;;;16.70;72.15;100766.53;4992164;28;20046;-78
2023/09/19 07:59:01;;;;;;;10.38;2.75;;;;;;;17.26;69.85;100766.84;5013577;28;20022;-77
2023/09/19 08:01:48;;;;;;;11.77;2.67;;;;;;;17.28;69.40;100750.28;5021226;28;20029;-77
2023/09/19 08:04:40;;;;;;;8.77;2.53;;;;;;;17.09;70.44;100780.41;4965369;28;1586544;-77
2023/09/19 08:07:05;;;;;;;11.38;2.53;;;;;;;17.20;69.39;100765.13;5012649;28;20138;-77
2023/09/19 08:15:11;;;;;;;10.75;2.58;;;;;;;17.95;66.81;100758.72;5914971;23;20088;-77
2023/09/19 08:29:51;;;;;;;8.35;2.55;;;;;;;18.94;62.66;100764.44;5018682;28;20551;-77
2023/09/19 08:32:23;;;;;;;8.82;2.30;;;;;;;18.57;65.06;100793.16;5023960;28;20050;-79
2023/09/19 08:34:55;;;;;;;11.10;2.83;;;;;;;18.72;64.21;100789.81;4973702;28;20045;-77
2023/09/19 08:41:40;;;;;;;8.93;2.55;;;;;;;19.37;62.57;100794.69;5015058;28;20140;-78
2023/09/19 08:44:46;;;;;;;11.13;2.53;;;;;;;19.04;63.75;100793.78;5030032;28;20061;-77
2023/09/19 08:48:14;;;;;;;;;;;;;;;;;;;;;
2023/09/19 08:54:43;;;;;;;10.43;2.63;;;;;;;18.68;64.22;100782.41;5018534;28;20096;-78
2023/09/19 08:57:10;;;;;;;10.65;2.22;;;;;;;18.54;65.44;100788.22;5026016;28;20474;-79
2023/09/19 08:59:45;;;;;;;12.05;2.67;;;;;;;18.22;65.88;100786.13;5007269;28;20026;-78
2023/09/19 09:02:46;;;;;;;6.25;2.65;;;;;;;18.57;65.66;100789.63;5001665;28;20037;-78
2023/09/19 09:06:05;;;;;;;8.07;2.38;;;;;;;19.64;61.89;100793.81;5036071;28;20030;-78
2023/09/19 09:15:19;;;;;;;10.90;2.67;;;;;;;18.74;64.60;100781.38;5016262;28;20092;-77
2023/09/19 09:17:48;;;;;;;7.43;2.35;;;;;;;19.31;61.80;100774.69;5032536;28;20029;-76
2023/09/19 09:20:41;;;;;;;11.70;2.80;;;;;;;18.78;64.38;100785.25;5029138;28;20469;-77
2023/09/19 09:27:04;;;;;;;11.27;2.72;;;;;;;18.75;64.76;100769.38;5025463;28;20501;-76
2023/09/19 09:35:16;;;;;;;10.32;2.85;;;;;;;19.09;63.20;100775.56;6167548;22;20015;-77
2023/09/19 09:37:47;;;;;;;13.27;2.65;;;;;;;19.50;62.57;100766.16;4964439;28;20452;-77
2023/09/19 09:43:48;;;;;;;8.73;2.78;;;;;;;20.41;58.44;100763.50;5035802;28;20059;-76
2023/09/19 09:49:54;;;;;;;11.90;2.38;;;;;;;21.03;57.81;100769.28;5033820;28;20048;-77
2023/09/19 10:11:43;;;;;;;9.13;2.50;;;;;;;20.69;54.40;100751.34;5041571;28;20044;-77
2023/09/19 10:14:43;;;;;;;8.57;2.28;;;;;;;21.24;52.96;100759.19;5037672;28;20033;-77
2023/09/19 10:17:15;;;;;;;10.85;2.67;;;;;;;21.05;52.68;100761.63;5119155;22;20056;-77
2023/09/19 10:20:17;;;;;;;8.43;2.25;;;;;;;21.01;53.66;100758.59;4954110;28;20053;-77
2023/09/19 10:39:00;;;;;;;8.73;2.78;;;;;;;22.17;49.29;100758.38;5547851;22;20049;-77
2023/09/19 10:44:09;;;;;;;8.15;2.80;;;;;;;22.25;49.82;100738.63;5148689;22;20048;-77
2023/09/19 10:46:36;;;;;;;9.73;2.72;;;;;;;22.32;49.67;100760.25;5053940;28;20029;-77
2023/09/19 10:49:02;;;;;;;7.18;2.13;;;;;;;21.98;49.28;100737.03;5035186;28;20032;-77
2023/09/19 10:51:33;;;;;;;7.88;2.70;;;;;;;22.05;49.30;100745.78;5035180;28;20025;-75
2023/09/19 10:54:07;;;;;;;8.63;2.40;;;;;;;21.65;50.35;100748.31;5018952;28;20465;-76
2023/09/19 10:56:41;;;;;;;10.25;2.60;;;;;;;22.10;47.85;100743.03;5019018;28;20024;-77
2023/09/19 10:59:18;;;;;;;11.05;2.58;;;;;;;21.99;49.13;100743.34;5050071;22;20120;-78
2023/09/19 11:01:56;;;;;;;6.03;2.20;;;;;;;21.55;49.38;100752.94;5021574;28;20025;-76
2023/09/19 11:04:29;;;;;;;10.50;2.25;;;;;;;21.28;52.08;100749.34;5035713;28;20156;-77
2023/09/19 11:07:11;;;;;;;8.77;2.70;;;;;;;20.89;51.86;100753.38;5140048;22;20049;-77
2023/09/19 11:09:58;;;;;;;9.77;2.38;;;;;;;20.30;53.48;100740.75;5039466;28;20091;-77
2023/09/19 11:12:45;;;;;;;9.43;2.35;;;;;;;20.12;55.10;100750.25;5041812;28;20143;-77
2023/09/19 11:15:13;;;;;;;7.63;2.70;;;;;;;19.99;55.48;100743.31;5033888;28;20041;-77
2023/09/19 11:17:42;;;;;;;9.10;2.22;;;;;;;20.03;55.14;100749.09;5000115;28;20026;-77
2023/09/19 11:22:48;;;;;;;11.90;2.63;;;;;;;20.30;55.80;100738.88;5032871;28;20037;-76
2023/09/19 11:25:52;;;;;;;8.20;2.58;;;;;;;20.05;55.82;100736.81;5034335;28;20045;-77
2023/09/19 11:28:23;;;;;;;11.65;2.70;;;;;;;19.57;55.40;100723.03;5028484;28;20103;-77
2023/09/19 11:30:55;;;;;;;7.00;2.47;;;;;;;19.68;56.27;100718.50;5038511;28;20035;-77
2023/09/19 11:33:28;;;;;;;7.18;2.13;;;;;;;19.74;56.89;100722.91;5032966;28;20307;-78
2023/09/19 11:36:07;;;;;;;8.02;2.03;;;;;;;19.57;57.59;100717.59;5036151;28;20520;-77
2023/09/19 11:38:44;;;;;;;7.13;2.40;;;;;;;19.36;57.42;100706.50;5040025;28;20037;-77
2023/09/19 11:41:31;;;;;;;5.55;2.13;;;;;;;19.41;58.42;100715.81;5032014;28;20033;-77
2023/09/19 11:44:00;;;;;;;9.68;2.10;;;;;;;19.45;59.04;100708.75;5031312;28;20724;-77
2023/09/19 11:46:45;;;;;;;7.68;1.85;;;;;;;19.60;57.42;100702.59;5052413;28;20052;-77
2023/09/19 11:49:12;;;;;;;6.63;2.08;;;;;;;20.16;55.67;100685.78;5051195;28;20311;-78
2023/09/19 11:51:43;;;;;;;7.38;1.85;;;;;;;20.97;53.74;100693.72;5039737;28;20480;-77
2023/09/19 11:54:18;;;;;;;9.65;2.10;;;;;;;20.40;54.26;100688.88;5033579;28;20030;-77
2023/09/19 11:56:44;;;;;;;6.57;1.92;;;;;;;20.41;53.59;100692.44;5033015;28;20116;-77
2023/09/19 11:59:09;;;;;;;8.55;2.10;;;;;;;20.44;54.55;100690.00;5032306;28;20040;-77
2023/09/19 12:01:37;;;;;;;9.80;2.10;;;;;;;20.25;54.97;100705.22;5041096;28;20042;-77
2023/09/19 12:04:04;;;;;;;7.18;2.05;;;;;;;19.94;55.93;100640.28;5041539;28;20032;-78
2023/09/19 12:06:32;;;;;;;9.45;2.20;;;;;;;19.69;56.95;100701.03;5022418;28;20037;-77
2023/09/19 12:08:59;;;;;;;9.07;2.17;;;;;;;19.41;56.98;100692.09;5041240;28;20108;-77
2023/09/19 12:11:33;;;;;;;7.35;2.40;;;;;;;19.58;57.87;100712.97;5024531;28;20373;-77
2023/09/19 12:14:02;;;;;;;8.48;2.38;;;;;;;19.75;57.64;100701.88;5043565;28;20056;-76
2023/09/19 12:16:30;;;;;;;7.28;2.15;;;;;;;19.49;57.71;100709.91;5007587;28;20091;-76
2023/09/19 12:18:57;;;;;;;5.72;1.83;;;;;;;19.82;56.12;100695.09;5046243;28;20036;-76
2023/09/19 12:21:27;;;;;;;7.85;1.75;;;;;;;20.43;53.88;100684.78;5043470;28;20046;-77
2023/09/19 12:24:06;;;;;;;5.32;1.92;;;;;;;20.63;54.28;100688.69;5051839;28;20036;-76
2023/09/19 12:32:44;;;;;;;7.82;2.05;;;;;;;20.65;54.42;100698.25;5014401;28;20113;-77
2023/09/19 12:38:53;;;;;;;8.80;2.42;;;;;;;20.08;54.40;100684.38;5032703;28;20121;-77
2023/09/19 12:41:30;;;;;;;6.47;2.05;;;;;;;20.05;54.34;100695.81;5017945;28;20117;-77
2023/09/19 12:44:24;;;;;;;8.38;2.15;;;;;;;20.39;54.65;100673.56;5009781;28;20034;-77
2023/09/19 12:47:24;;;;;;;7.80;1.95;;;;;;;20.58;53.47;100673.09;4997859;28;20390;-77
2023/09/19 12:50:42;;;;;;;6.00;2.22;;;;;;;20.70;53.63;100668.19;5019345;28;20091;-78
2023/09/19 12:53:08;;;;;;;6.60;2.00;;;;;;;20.75;52.81;100678.31;5024687;28;20037;-77
2023/09/19 12:55:36;;;;;;;7.95;1.85;;;;;;;21.08;52.03;100667.19;4989267;28;20061;-77
2023/09/19 12:58:49;;;;;;;7.97;1.75;;;;;;;20.62;52.56;100676.09;5012532;28;20040;-77
2023/09/19 13:01:39;;;;;;;9.77;1.80;;;;;;;21.24;50.64;100670.78;5010630;28;20042;-77
2023/09/19 13:04:45;;;;;;;4.38;1.55;;;;;;;21.30;50.73;100658.72;5003383;28;20444;-76
2023/09/19 13:07:57;;;;;;;5.85;2.10;;;;;;;21.61;50.31;100667.75;5029130;28;20048;-76
2023/09/19 13:10:28;;;;;;;5.72;1.70;;;;;;;21.02;51.23;100685.53;5022008;28;20475;-77
2023/09/19 13:12:54;;;;;;;6.95;1.70;;;;;;;20.52;51.94;100687.81;5012626;28;20556;-76
2023/09/19 13:15:29;;;;;;;9.40;2.00;;;;;;;19.82;53.58;100678.72;5019377;28;20057;-76
2023/09/19 13:17:54;;;;;;;6.35;1.80;;;;;;;19.88;54.40;100681.50;5016196;28;20068;-76
2023/09/19 13:20:29;;;;;;;4.80;1.48;;;;;;;19.56;55.44;100671.44;5029283;28;20025;-76
2023/09/19 13:23:10;;;;;;;6.03;1.40;;;;;;;19.41;55.76;100666.69;5019333;28;20081;-76
2023/09/19 13:25:35;;;;;;;6.18;1.50;;;;;;;19.48;57.02;100679.03;5024413;28;20041;-76
2023/09/19 13:28:04;;;;;;;4.15;1.65;;;;;;;19.32;56.49;100677.25;5019354;28;20064;-76
2023/09/19 13:30:31;;;;;;;6.00;1.30;;;;;;;19.15;57.72;100678.19;5016931;28;20055;-76
2023/09/19 13:33:19;;;;;;;3.85;1.50;;;;;;;19.19;58.12;100675.78;5027305;28;20076;-76
2023/09/19 13:35:44;;;;;;;6.50;1.80;;;;;;;19.03;57.92;100672.91;5026849;28;20029;-76
2023/09/19 13:38:12;;;;;;;4.25;1.33;;;;;;;18.96;58.68;100669.56;5022814;28;20394;-77
2023/09/19 13:40:43;;;;;;;3.53;1.30;;;;;;;19.28;57.78;100670.66;5017531;28;20044;-76
2023/09/19 13:43:10;;;;;;;4.20;1.42;;;;;;;19.43;57.67;100664.50;5014373;28;20050;-76
2023/09/19 13:45:41;;;;;;;7.65;1.50;;;;;;;19.42;57.75;100671.06;5032122;28;20389;-76
2023/09/19 13:48:07;;;;;;;3.65;1.67;;;;;;;19.27;57.99;100658.94;5013823;28;20037;-75
2023/09/19 13:50:36;;;;;;;4.63;1.40;;;;;;;19.18;58.09;100634.03;5037494;28;20040;-76
2023/09/19 13:53:02;;;;;;;3.90;1.45;;;;;;;19.02;58.98;100673.19;5038367;28;20013;-76
2023/09/19 13:55:28;;;;;;;5.40;1.48;;;;;;;19.19;58.71;100668.44;5026815;28;20069;-76
2023/09/19 13:57:55;;;;;;;8.25;1.80;;;;;;;19.11;59.15;100673.53;5032707;28;20044;-76
2023/09/19 14:00:23;;;;;;;5.43;1.80;;;;;;;19.04;59.54;100668.28;5017918;28;20100;-78
2023/09/19 14:02:50;;;;;;;4.65;1.88;;;;;;;19.06;59.95;100656.03;5024899;28;20025;-77
2023/09/19 14:05:16;;;;;;;3.33;1.50;;;;;;;19.17;59.75;100669.75;5022659;28;20076;-76
2023/09/19 14:07:46;;;;;;;7.68;1.85;;;;;;;19.31;59.10;100651.03;5029148;28;20046;-76
2023/09/19 14:10:12;;;;;;;4.82;2.00;;;;;;;19.35;58.22;100638.53;5025254;28;20515;-75
2023/09/19 14:12:40;;;;;;;4.40;1.25;;;;;;;19.34;58.87;100655.97;5019178;28;20049;-76
2023/09/19 14:15:08;;;;;;;4.75;1.50;;;;;;;19.25;59.74;100655.63;5000037;28;20026;-76
2023/09/19 14:17:33;;;;;;;4.47;1.35;;;;;;;19.34;60.91;100664.16;5014682;28;20025;-75
2023/09/19 14:19:59;;;;;;;4.32;1.58;;;;;;;19.34;59.73;100654.06;5012691;28;20461;-75
2023/09/19 14:22:24;;;;;;;4.88;1.40;;;;;;;19.21;60.50;100663.53;5022624;28;20029;-77
2023/09/19 14:24:50;;;;;;;4.47;1.35;;;;;;;19.12;60.27;100653.34;5004433;28;20029;-76
2023/09/19 14:27:15;;;;;;;3.35;1.27;;;;;;;19.09;60.21;100669.16;5027360;28;20036;-76
2023/09/19 14:29:42;;;;;;;6.00;1.40;;;;;;;19.26;60.19;100661.91;5041635;28;20507;-76
2023/09/19 14:32:07;;;;;;;4.13;1.45;;;;;;;19.30;60.25;100657.59;5018490;28;20045;-77
2023/09/19 14:34:32;;;;;;;3.67;1.38;;;;;;;19.40;60.26;100663.13;5024874;28;20025;-77
2023/09/19 14:36:58;;;;;;;3.70;1.60;;;;;;;19.63;59.74;100661.09;5029082;28;20037;-77
2023/09/19 14:39:24;;;;;;;2.80;1.40;;;;;;;19.69;59.80;100654.59;5029026;28;20024;-76
2023/09/19 14:41:49;;;;;;;5.05;1.83;;;;;;;19.80;58.90;100650.84;5005349;28;20498;-76
2023/09/19 14:44:16;;;;;;;3.03;1.50;;;;;;;19.80;59.15;100652.75;5014166;28;20030;-76
2023/09/19 14:46:43;;;;;;;3.17;1.48;;;;;;;19.90;58.89;100654.75;5028034;28;20041;-76
2023/09/19 14:49:10;;;;;;;4.20;1.50;;;;;;;19.95;59.05;100647.41;5022350;28;20118;-76
2023/09/19 14:51:35;;;;;;;3.20;1.50;;;;;;;19.89;58.95;100653.91;5014108;28;20101;-77
2023/09/19 14:54:02;;;;;;;2.63;1.50;;;;;;;19.90;58.53;100639.19;5029235;28;20045;-76
2023/09/19 14:56:29;;;;;;;4.38;1.60;;;;;;;19.78;59.05;100650.28;5013463;28;20044;-78
2023/09/19 14:58:55;;;;;;;3.55;1.60;;;;;;;19.78;59.55;100658.47;5030656;28;20025;-77
2023/09/19 15:01:22;;;;;;;3.05;1.63;;;;;;;19.85;59.28;100661.00;5026269;28;20024;-77
2023/09/19 15:03:49;;;;;;;3.58;1.23;;;;;;;19.41;60.29;100666.69;5015193;28;20106;-75
2023/09/19 15:06:20;;;;;;;6.57;1.50;;;;;;;19.49;60.07;100650.63;5025927;28;20375;-77
2023/09/19 15:08:47;;;;;;;16.08;1.60;;;;;;;19.51;60.02;100623.91;5020409;28;20022;-77
2023/09/19 15:11:17;;;;;;;4.20;1.40;;;;;;;19.44;60.67;100644.31;4999857;28;20026;-77
2023/09/19 15:13:44;;;;;;;3.40;1.55;;;;;;;19.45;60.31;100652.25;5029406;28;20025;-79
2023/09/19 15:16:13;;;;;;;4.15;1.40;;;;;;;19.26;60.09;100624.53;5018959;28;20030;-79
2023/09/19 15:18:43;;;;;;;3.10;1.50;;;;;;;19.19;60.67;100638.41;5025895;28;20385;-78
2023/09/19 15:21:10;;;;;;;3.35;1.25;;;;;;;19.11;60.24;100643.53;5033489;28;20040;-78
2023/09/19 15:23:36;;;;;;;4.75;1.50;;;;;;;19.07;60.88;100648.66;5016994;28;20025;-77
2023/09/19 15:26:05;;;;;;;2.97;1.25;;;;;;;19.03;60.82;100634.72;5010311;28;20022;-79
2023/09/19 15:28:32;;;;;;;3.80;1.35;;;;;;;18.99;61.28;100639.03;5010216;28;20038;-79
2023/09/19 15:31:00;;;;;;;5.20;1.55;;;;;;;18.81;61.17;100634.75;5054214;22;20480;-78
2023/09/19 15:36:15;;;;;;;4.15;1.40;;;;;;;18.78;61.58;100635.25;5026421;22;20548;-78
2023/09/19 15:39:10;;;;;;;1.85;1.20;;;;;;;18.66;61.82;100631.88;5045030;28;20350;-78
2023/09/19 15:41:40;;;;;;;2.97;1.63;;;;;;;18.68;61.83;100640.63;5049135;28;20042;-79
2023/09/19 15:44:26;;;;;;;6.10;1.60;;;;;;;18.68;61.90;100641.44;5047809;28;20431;-79
2023/09/19 15:46:52;;;;;;;3.70;1.50;;;;;;;18.64;62.62;100622.03;5044081;28;20044;-79
2023/09/19 15:49:17;;;;;;;4.72;1.40;;;;;;;18.61;62.14;100627.19;5038496;28;20021;-80
2023/09/19 15:51:55;;;;;;;2.60;1.40;;;;;;;18.54;63.14;100635.56;5052845;28;20033;-79
2023/09/19 15:54:33;;;;;;;2.13;1.23;;;;;;;18.60;62.59;100629.09;5050364;28;20029;-80
2023/09/19 15:57:17;;;;;;;3.65;1.30;;;;;;;18.44;63.75;100635.44;5040567;28;20384;-79
2023/09/19 15:59:44;;;;;;;3.50;1.25;;;;;;;18.52;63.75;100648.63;5046134;28;20025;-79
2023/09/19 16:02:19;;;;;;;2.85;1.20;;;;;;;18.51;63.23;100635.25;5042521;28;20070;-79
2023/09/19 16:04:46;;;;;;;1.95;1.08;;;;;;;18.43;63.17;100633.81;5039665;28;20028;-78
2023/09/19 16:07:11;;;;;;;3.78;1.23;;;;;;;18.40;64.17;100640.59;5040833;28;20033;-78
2023/09/19 16:09:37;;;;;;;2.97;1.33;;;;;;;18.35;64.31;100642.44;5060759;28;20021;-78
2023/09/19 16:12:03;;;;;;;3.70;1.42;;;;;;;18.35;64.12;100631.53;5051233;28;20140;-77
2023/09/19 16:14:30;;;;;;;2.78;1.17;;;;;;;18.32;64.20;100624.69;5046448;28;20061;-78
2023/09/19 16:16:57;;;;;;;3.72;1.40;;;;;;;18.23;64.86;100635.19;5044823;28;20185;-77
2023/09/19 16:19:23;;;;;;;3.90;1.35;;;;;;;18.12;64.77;100628.81;5050305;28;20025;-78
2023/09/19 16:21:49;;;;;;;2.88;1.23;;;;;;;18.15;65.09;100641.13;5051314;28;20070;-77
2023/09/19 16:24:16;;;;;;;4.03;1.30;;;;;;;18.15;65.16;100639.19;5045630;28;20051;-77
2023/09/19 16:26:42;;;;;;;4.22;1.50;;;;;;;18.15;65.51;100636.47;5041542;28;20112;-79
2023/09/19 16:29:09;;;;;;;2.88;1.05;;;;;;;18.09;65.44;100639.38;5040252;28;20037;-79
2023/09/19 16:31:35;;;;;;;3.47;1.30;;;;;;;18.09;65.51;100642.13;5040475;28;20057;-79
2023/09/19 16:34:01;;;;;;;4.55;1.30;;;;;;;17.99;66.27;100643.63;5042494;28;20094;-77
2023/09/19 16:36:29;;;;;;;2.15;1.10;;;;;;;18.07;65.91;100645.09;5042738;28;20063;-78
2023/09/19 16:38:54;;;;;;;3.90;1.27;;;;;;;18.06;66.22;100643.44;5048194;28;20116;-78
2023/09/19 16:41:20;;;;;;;4.72;1.45;;;;;;;18.04;66.42;100653.78;5035800;28;20092;-78
2023/09/19 16:43:45;;;;;;;2.92;1.17;;;;;;;18.08;65.65;100640.47;5037626;28;20311;-79
2023/09/19 16:46:12;;;;;;;3.17;1.10;;;;;;;18.12;65.91;100653.31;5043371;28;20029;-77
2023/09/19 16:48:38;;;;;;;4.38;1.55;;;;;;;18.12;66.16;100655.22;5040054;28;20418;-78
2023/09/19 16:51:08;;;;;;;2.78;1.10;;;;;;;18.06;65.82;100640.72;5047091;28;20021;-78
2023/09/19 16:53:37;;;;;;;3.10;1.58;;;;;;;18.10;66.27;100646.47;5047134;28;20029;-77
2023/09/19 16:56:08;;;;;;;3.97;1.27;;;;;;;17.98;66.22;100639.25;5048885;28;20028;-78
2023/09/19 16:58:38;;;;;;;4.57;1.25;;;;;;;18.00;66.37;100645.25;5049610;28;20057;-78
2023/09/19 17:01:10;;;;;;;4.15;1.27;;;;;;;18.00;66.71;100647.97;5047845;28;20030;-79
2023/09/19 17:03:36;;;;;;;3.42;1.38;;;;;;;17.95;66.80;100644.34;5042988;28;20080;-77
2023/09/19 17:06:06;;;;;;;4.18;1.17;;;;;;;17.96;66.65;100641.38;5045608;28;20045;-77
2023/09/19 17:08:32;;;;;;;4.82;1.40;;;;;;;17.94;66.96;100643.53;5043068;28;20049;-77